createdAt,value
2022-08-03T00:02:13.188Z,9.77
2022-08-03T00:04:35.222Z,9.18
2022-08-03T00:06:57.027Z,11.18
2022-08-03T00:09:18.969Z,7.72
2022-08-03T00:11:40.788Z,10.20
2022-08-03T00:14:04.527Z,10.07
2022-08-03T00:16:26.426Z,7.05
2022-08-03T00:18:48.325Z,14.55
2022-08-03T00:21:10.407Z,10.05
2022-08-03T00:23:52.096Z,10.10
2022-08-03T00:26:14.778Z,9.32
2022-08-03T00:28:36.593Z,11.85
2022-08-03T00:30:58.398Z,11.50
2022-08-03T00:33:20.259Z,8.48
2022-08-03T00:35:50.311Z,7.17
2022-08-03T00:38:13.013Z,7.53
2022-08-03T00:40:35.339Z,9.45
2022-08-03T00:43:04.721Z,9.18
2022-08-03T00:45:34.346Z,10.90
2022-08-03T00:47:57.052Z,8.82
2022-08-03T00:50:22.880Z,10.23
2022-08-03T00:52:45.603Z,7.70
2022-08-03T00:55:08.043Z,9.73
2022-08-03T00:57:32.625Z,8.15
2022-08-03T01:02:16.871Z,8.70
2022-08-03T01:04:38.866Z,9.23
2022-08-03T01:07:21.872Z,7.32
2022-08-03T01:10:17.440Z,10.18
2022-08-03T01:15:29.568Z,10.43
2022-08-03T01:18:18.666Z,8.98
2022-08-03T01:20:47.463Z,9.80
2022-08-03T01:23:57.174Z,11.40
2022-08-03T01:27:05.494Z,8.15
2022-08-03T01:30:07.639Z,10.75
2022-08-03T01:33:03.497Z,9.40
2022-08-03T01:35:38.303Z,9.52
2022-08-03T01:40:34.416Z,11.25
2022-08-03T01:42:59.622Z,9.73
2022-08-03T01:45:22.882Z,9.48
2022-08-03T01:47:50.117Z,10.75
2022-08-03T01:50:14.948Z,10.25
2022-08-03T01:52:42.277Z,10.07
2022-08-03T01:55:07.195Z,11.13
2022-08-03T01:57:30.566Z,9.88
2022-08-03T01:59:55.947Z,7.57
2022-08-03T02:02:34.199Z,10.95
2022-08-03T02:05:00.459Z,13.90
2022-08-03T02:07:26.599Z,11.48
2022-08-03T02:09:52.765Z,11.15
2022-08-03T02:12:17.667Z,10.18
2022-08-03T02:14:43.678Z,10.68
2022-08-03T02:17:08.400Z,10.60
2022-08-03T02:19:35.723Z,14.32
2022-08-03T02:22:01.280Z,8.88
2022-08-03T02:24:24.183Z,11.25
2022-08-03T02:26:49.222Z,12.52
2022-08-03T02:29:21.567Z,9.98
2022-08-03T02:32:04.505Z,12.73
2022-08-03T02:34:29.811Z,11.25
2022-08-03T02:36:54.269Z,12.85
2022-08-03T02:41:50.151Z,10.35
2022-08-03T02:44:14.893Z,10.73
2022-08-03T02:46:43.131Z,11.98
2022-08-03T02:49:40.595Z,12.85
2022-08-03T02:51:53.269Z,11.45
2022-08-03T02:54:19.911Z,10.90
2022-08-03T02:56:43.294Z,11.80
2022-08-03T02:59:07.834Z,10.23
2022-08-03T03:03:57.450Z,9.88
2022-08-03T03:06:21.251Z,9.35
2022-08-03T03:08:47.264Z,16.58
2022-08-03T03:11:11.251Z,10.88
2022-08-03T03:13:34.105Z,11.90
2022-08-03T03:16:01.495Z,11.83
2022-08-03T03:18:25.399Z,9.02
2022-08-03T03:20:50.386Z,13.02
2022-08-03T03:23:14.688Z,11.43
2022-08-03T03:25:37.844Z,13.50
2022-08-03T03:28:02.926Z,13.73
2022-08-03T03:30:26.404Z,14.23
2022-08-03T03:32:48.982Z,12.32
2022-08-03T03:35:13.699Z,11.55
2022-08-03T03:37:35.970Z,11.57
2022-08-03T03:39:58.204Z,11.98
2022-08-03T03:42:20.876Z,11.82
2022-08-03T03:44:42.798Z,14.88
2022-08-03T03:47:04.886Z,10.40
2022-08-03T03:49:27.693Z,11.80
2022-08-03T03:51:54.920Z,10.80
2022-08-03T03:54:16.883Z,15.65
2022-08-03T03:56:38.725Z,15.80
2022-08-03T03:59:00.656Z,12.20
2022-08-03T04:01:23.273Z,14.17
2022-08-03T04:03:45.728Z,11.07
2022-08-03T04:06:26.666Z,12.83
2022-08-03T04:09:06.994Z,12.25
2022-08-03T04:11:38.320Z,11.50
2022-08-03T04:14:17.919Z,15.80
2022-08-03T04:16:47.138Z,15.15
2022-08-03T04:19:21.180Z,13.57
2022-08-03T04:21:51.897Z,12.17
2022-08-03T04:24:18.186Z,11.23
2022-08-03T04:26:43.261Z,13.73
2022-08-03T04:29:06.618Z,11.57
2022-08-03T04:31:30.656Z,13.00
2022-08-03T04:33:55.627Z,14.70
2022-08-03T04:36:23.661Z,13.60
2022-08-03T04:39:02.668Z,12.13
2022-08-03T04:41:27.688Z,12.88
2022-08-03T04:43:53.814Z,10.85
2022-08-03T04:46:16.453Z,13.30
2022-08-03T04:48:42.363Z,12.32
2022-08-03T04:51:06.672Z,13.15
2022-08-03T04:53:28.699Z,13.52
2022-08-03T04:55:50.592Z,14.23
2022-08-03T04:58:12.678Z,11.02
2022-08-03T05:00:34.939Z,14.50
2022-08-03T05:02:56.965Z,16.85
2022-08-03T05:05:18.982Z,14.35
2022-08-03T05:07:41.081Z,12.45
2022-08-03T05:10:14.846Z,12.82
2022-08-03T05:12:37.901Z,15.00
2022-08-03T05:15:00.844Z,14.35
2022-08-03T05:17:22.613Z,17.58
2022-08-03T05:19:44.449Z,15.20
2022-08-03T05:22:06.256Z,13.13
2022-08-03T05:24:28.042Z,13.63
2022-08-03T05:26:49.858Z,16.23
2022-08-03T05:29:11.695Z,14.05
2022-08-03T05:31:33.536Z,15.80
2022-08-03T05:33:57.102Z,13.05
2022-08-03T05:36:18.916Z,12.40
2022-08-03T05:38:40.717Z,13.77
2022-08-03T05:41:22.507Z,16.90
2022-08-03T05:43:46.957Z,14.48
2022-08-03T05:46:12.165Z,12.63
2022-08-03T05:48:34.897Z,11.48
2022-08-03T05:50:57.168Z,13.10
2022-08-03T05:53:19.195Z,12.65
2022-08-03T05:55:40.973Z,12.10
2022-08-03T05:58:03.903Z,11.98
2022-08-03T06:00:25.816Z,11.93
2022-08-03T06:02:47.780Z,12.52
2022-08-03T06:05:10.903Z,11.88
2022-08-03T06:07:33.358Z,13.85
2022-08-03T06:10:35.272Z,11.65
2022-08-03T06:12:37.353Z,15.65
2022-08-03T06:14:59.200Z,9.23
2022-08-03T06:17:21.005Z,14.68
2022-08-03T06:19:42.875Z,9.50
2022-08-03T06:22:05.173Z,9.55
2022-08-03T06:24:27.266Z,11.43
2022-08-03T06:26:51.616Z,12.18
2022-08-03T06:29:13.428Z,8.98
2022-08-03T06:31:35.236Z,8.63
2022-08-03T06:34:32.155Z,9.25
2022-08-03T06:36:39.449Z,9.68
2022-08-03T06:39:01.386Z,11.30
2022-08-03T06:41:23.251Z,11.20
2022-08-03T06:44:03.444Z,10.70
2022-08-03T06:46:26.174Z,8.27
2022-08-03T06:48:48.364Z,8.07
2022-08-03T06:51:10.644Z,7.72
2022-08-03T06:53:32.639Z,8.85
2022-08-03T06:55:55.337Z,10.65
2022-08-03T06:58:17.252Z,9.13
2022-08-03T07:00:39.180Z,10.50
2022-08-03T07:03:01.021Z,11.48
2022-08-03T07:05:23.110Z,12.73
2022-08-03T07:07:44.955Z,11.10
2022-08-03T07:10:08.896Z,11.38
2022-08-03T07:12:32.362Z,8.73
2022-08-03T07:15:00.375Z,11.33
2022-08-03T07:17:23.530Z,8.85
2022-08-03T07:19:45.454Z,11.07
2022-08-03T07:22:08.785Z,10.98
2022-08-03T07:24:30.711Z,9.40
2022-08-03T07:26:52.760Z,7.70
2022-08-03T07:29:15.349Z,12.55
2022-08-03T07:31:38.553Z,12.52
2022-08-03T07:34:00.341Z,8.52
2022-08-03T07:36:23.222Z,8.75
2022-08-03T07:38:45.012Z,6.95
2022-08-03T07:41:06.968Z,7.68
2022-08-03T07:43:28.792Z,12.30
2022-08-03T07:45:50.742Z,7.45
2022-08-03T07:48:12.889Z,7.63
2022-08-03T07:50:34.722Z,8.77
2022-08-03T07:52:57.908Z,8.35
2022-08-03T07:55:24.049Z,14.80
2022-08-03T07:57:46.286Z,8.75
2022-08-03T08:00:17.070Z,10.10
2022-08-03T08:02:39.077Z,9.27
2022-08-03T08:05:05.333Z,9.10
2022-08-03T08:07:27.625Z,10.57
2022-08-03T08:09:49.450Z,9.35
2022-08-03T08:12:15.131Z,9.93
2022-08-03T08:14:37.718Z,11.68
2022-08-03T08:17:00.293Z,11.15
2022-08-03T08:19:24.376Z,10.55
2022-08-03T08:21:53.872Z,10.82
2022-08-03T08:24:24.997Z,13.40
2022-08-03T08:26:46.969Z,9.55
2022-08-03T08:29:09.177Z,14.63
2022-08-03T08:31:31.069Z,11.00
2022-08-03T08:34:08.213Z,14.18
2022-08-03T08:36:30.017Z,8.85
2022-08-03T08:38:52.169Z,10.15
2022-08-03T08:41:15.280Z,8.40
2022-08-03T08:43:37.347Z,12.43
2022-08-03T08:46:00.146Z,9.48
2022-08-03T08:48:25.974Z,10.20
2022-08-03T08:50:52.353Z,8.25
2022-08-03T08:53:18.338Z,10.38
2022-08-03T08:55:59.019Z,10.98
2022-08-03T08:58:23.435Z,10.73
2022-08-03T09:00:45.797Z,9.88
2022-08-03T09:03:07.727Z,9.32
2022-08-03T09:05:55.012Z,9.00
2022-08-03T09:08:14.995Z,8.05
2022-08-03T09:10:36.912Z,9.93
2022-08-03T09:13:00.009Z,9.98
2022-08-03T09:15:33.136Z,12.02
2022-08-03T09:17:58.327Z,8.07
2022-08-03T09:20:22.243Z,11.10
2022-08-03T09:23:24.691Z,7.63
2022-08-03T09:25:47.239Z,8.02
2022-08-03T09:28:52.589Z,7.82
2022-08-03T09:31:00.616Z,9.80
2022-08-03T09:33:23.147Z,9.35
2022-08-03T09:35:57.489Z,12.40
2022-08-03T09:38:26.376Z,11.73
2022-08-03T09:40:48.395Z,11.82
2022-08-03T09:43:12.724Z,8.63
2022-08-03T09:45:36.737Z,8.40
2022-08-03T09:48:26.185Z,7.45
2022-08-03T09:50:51.072Z,12.88
2022-08-03T09:53:22.406Z,9.68
2022-08-03T09:56:34.856Z,11.10
2022-08-03T09:58:48.100Z,10.13
2022-08-03T10:04:03.153Z,9.45
2022-08-03T10:06:29.001Z,8.00
2022-08-03T10:09:13.940Z,9.45
2022-08-03T10:11:41.806Z,12.95
2022-08-03T10:14:06.657Z,12.85
2022-08-03T10:16:38.006Z,13.05
2022-08-03T10:19:00.083Z,9.38
2022-08-03T10:21:22.558Z,12.00
2022-08-03T10:23:44.742Z,19.48
2022-08-03T10:26:12.241Z,9.98
2022-08-03T10:28:49.076Z,11.45
2022-08-03T10:31:14.072Z,10.90
2022-08-03T10:33:51.532Z,7.88
2022-08-03T10:36:16.887Z,12.00
2022-08-03T10:38:52.496Z,11.32
2022-08-03T10:41:20.472Z,12.95
2022-08-03T10:44:03.083Z,16.25
2022-08-03T10:46:27.579Z,14.25
2022-08-03T10:48:52.623Z,10.50
2022-08-03T10:51:15.658Z,12.30
2022-08-03T10:53:51.528Z,13.68
2022-08-03T10:56:58.627Z,10.55
2022-08-03T10:59:48.429Z,13.02
2022-08-03T11:02:10.277Z,14.68
2022-08-03T11:04:32.119Z,13.85
2022-08-03T11:07:16.600Z,12.82
2022-08-03T11:12:32.516Z,16.80
2022-08-03T11:14:57.096Z,14.07
2022-08-03T11:17:19.772Z,13.85
2022-08-03T11:19:57.390Z,16.25
2022-08-03T11:22:22.238Z,18.25
2022-08-03T11:24:46.444Z,14.40
2022-08-03T11:27:14.804Z,12.65
2022-08-03T11:29:36.853Z,14.32
2022-08-03T11:31:58.778Z,15.73
2022-08-03T11:34:20.810Z,14.30
2022-08-03T11:37:28.720Z,10.57
2022-08-03T11:39:54.797Z,16.17
2022-08-03T11:42:23.408Z,15.88
2022-08-03T11:44:47.614Z,13.75
2022-08-03T11:47:17.745Z,16.02
2022-08-03T11:49:40.735Z,16.35
2022-08-03T11:52:02.904Z,14.20
2022-08-03T11:54:25.819Z,12.70
2022-08-03T11:56:51.014Z,11.63
2022-08-03T11:59:20.154Z,16.50
2022-08-03T12:01:42.860Z,13.60
2022-08-03T12:04:05.915Z,14.02
2022-08-03T12:06:27.752Z,13.55
2022-08-03T12:08:49.548Z,13.18
2022-08-03T12:11:15.351Z,11.05
2022-08-03T12:14:05.773Z,9.88
2022-08-03T12:16:25.577Z,11.07
2022-08-03T12:19:01.579Z,12.88
2022-08-03T12:21:24.751Z,10.63
2022-08-03T12:23:46.608Z,13.10
2022-08-03T12:26:10.391Z,11.68
2022-08-03T12:28:37.885Z,8.57
2022-08-03T12:31:07.906Z,10.75
2022-08-03T12:33:30.324Z,9.02
2022-08-03T12:36:11.086Z,9.43
2022-08-03T12:38:37.543Z,8.15
2022-08-03T12:41:16.712Z,10.50
2022-08-03T12:43:39.868Z,10.88
2022-08-03T12:46:14.889Z,8.05
2022-08-03T12:48:36.945Z,11.27
2022-08-03T12:51:11.794Z,8.00
2022-08-03T12:53:33.589Z,9.70
2022-08-03T12:56:05.767Z,9.82
2022-08-03T12:58:36.352Z,9.93
2022-08-03T13:00:58.241Z,7.22
2022-08-03T13:03:39.008Z,6.25
2022-08-03T13:06:02.183Z,10.57
2022-08-03T13:08:25.880Z,9.43
2022-08-03T13:10:48.565Z,8.98
2022-08-03T13:13:10.823Z,7.32
2022-08-03T13:15:33.531Z,12.13
2022-08-03T13:18:00.622Z,9.75
2022-08-03T13:20:23.976Z,7.18
2022-08-03T13:22:49.028Z,10.23
2022-08-03T13:25:10.814Z,7.85
2022-08-03T13:28:03.487Z,8.50
2022-08-03T13:30:27.526Z,7.20
2022-08-03T13:32:52.145Z,7.93
2022-08-03T13:35:16.619Z,7.55
2022-08-03T13:37:38.971Z,6.65
2022-08-03T13:40:05.519Z,7.72
2022-08-03T13:42:30.683Z,7.22
2022-08-03T13:44:52.614Z,8.23
2022-08-03T13:47:14.438Z,6.10
2022-08-03T13:49:37.390Z,5.88
2022-08-03T13:51:59.402Z,6.68
2022-08-03T13:54:21.247Z,5.32
2022-08-03T13:56:48.820Z,6.18
2022-08-03T13:59:11.070Z,7.43
2022-08-03T14:01:54.192Z,5.78
2022-08-03T14:04:21.817Z,8.88
2022-08-03T14:06:45.912Z,7.65
2022-08-03T14:09:07.908Z,8.95
2022-08-03T14:12:07.570Z,8.93
2022-08-03T14:14:12.685Z,9.90
2022-08-03T14:16:35.896Z,5.18
2022-08-03T14:18:57.779Z,4.65
2022-08-03T14:21:20.473Z,6.75
2022-08-03T14:23:42.352Z,6.32
2022-08-03T14:26:08.506Z,8.25
2022-08-03T14:28:30.289Z,8.20
2022-08-03T14:30:54.492Z,5.05
2022-08-03T14:33:16.479Z,7.05
2022-08-03T14:35:38.683Z,7.47
2022-08-03T14:38:00.515Z,7.05
2022-08-03T14:40:22.523Z,4.57
2022-08-03T14:42:44.573Z,6.40
2022-08-03T14:45:09.631Z,4.38
2022-08-03T14:50:30.653Z,8.10
2022-08-03T14:50:31.052Z,7.93
2022-08-03T14:53:05.171Z,6.22
2022-08-03T14:55:27.405Z,6.20
2022-08-03T14:58:02.897Z,7.07
2022-08-03T15:00:24.826Z,4.55
2022-08-03T15:02:46.703Z,5.07
2022-08-03T15:05:10.791Z,5.30
2022-08-03T15:07:32.791Z,8.50
2022-08-03T15:09:55.143Z,6.40
2022-08-03T15:12:17.014Z,6.43
2022-08-03T15:14:39.114Z,11.15
2022-08-03T15:17:01.587Z,9.07
2022-08-03T15:20:01.077Z,6.40
2022-08-03T15:22:05.366Z,5.88
2022-08-03T15:24:31.020Z,5.32
2022-08-03T15:26:53.378Z,6.28
2022-08-03T15:30:05.082Z,6.38
2022-08-03T15:31:57.271Z,10.15
2022-08-03T15:34:19.085Z,8.52
2022-08-03T15:36:40.985Z,4.85
2022-08-03T15:39:04.570Z,4.97
2022-08-03T15:41:26.553Z,7.75
2022-08-03T15:43:48.390Z,4.43
2022-08-03T15:46:28.837Z,5.80
2022-08-03T15:48:51.501Z,8.85
2022-08-03T15:51:13.699Z,6.03
2022-08-03T15:53:36.721Z,7.78
2022-08-03T15:55:59.387Z,6.40
2022-08-03T15:59:10.240Z,7.90
2022-08-03T16:01:06.365Z,6.47
2022-08-03T16:03:34.205Z,9.70
2022-08-03T16:05:56.065Z,7.22
2022-08-03T16:08:17.840Z,9.23
2022-08-03T16:10:40.627Z,6.60
2022-08-03T16:13:02.564Z,9.35
2022-08-03T16:15:24.833Z,5.28
2022-08-03T16:17:46.691Z,7.22
2022-08-03T16:20:30.949Z,6.78
2022-08-03T16:25:17.421Z,6.40
2022-08-03T16:28:03.263Z,9.88
2022-08-03T16:30:21.647Z,7.32
2022-08-03T16:32:45.523Z,9.73
2022-08-03T16:35:08.508Z,7.90
2022-08-03T16:37:39.235Z,6.70
2022-08-03T16:40:02.015Z,8.98
2022-08-03T16:42:23.893Z,8.10
2022-08-03T16:44:45.696Z,5.05
2022-08-03T16:47:07.513Z,5.30
2022-08-03T16:49:54.657Z,5.32
2022-08-03T16:52:18.238Z,4.15
2022-08-03T16:54:40.783Z,5.55
2022-08-03T16:57:02.808Z,5.25
2022-08-03T16:59:36.025Z,6.10
2022-08-03T17:02:00.146Z,5.88
2022-08-03T17:04:22.098Z,5.47
2022-08-03T17:06:45.389Z,8.48
2022-08-03T17:09:18.924Z,5.32
2022-08-03T17:11:47.151Z,5.35
2022-08-03T17:14:12.227Z,8.55
2022-08-03T17:16:34.548Z,9.07
2022-08-03T17:19:05.738Z,6.75
2022-08-03T17:21:32.419Z,9.65
2022-08-03T17:24:41.021Z,7.97
2022-08-03T17:28:42.395Z,6.38
2022-08-03T17:30:00.886Z,6.15
2022-08-03T17:32:26.244Z,6.07
2022-08-03T17:34:49.239Z,8.25
2022-08-03T17:37:27.230Z,8.70
2022-08-03T17:39:59.065Z,9.18
2022-08-03T17:42:30.381Z,8.43
2022-08-03T17:44:56.260Z,8.77
2022-08-03T17:47:19.211Z,9.73
2022-08-03T17:49:43.445Z,5.03
2022-08-03T17:52:19.701Z,7.22
2022-08-03T17:55:56.581Z,7.95
2022-08-03T17:58:03.297Z,7.07
2022-08-03T18:00:45.359Z,8.07
2022-08-03T18:03:58.245Z,6.25
2022-08-03T18:06:28.843Z,8.23
2022-08-03T18:08:55.368Z,7.80
2022-08-03T18:11:22.820Z,10.40
2022-08-03T18:14:16.559Z,4.90
2022-08-03T18:16:52.277Z,8.10
2022-08-03T18:19:15.860Z,8.57
2022-08-03T18:22:03.382Z,12.73
2022-08-03T18:24:25.787Z,9.50
2022-08-03T18:26:50.032Z,6.68
2022-08-03T18:29:13.875Z,8.03
2022-08-03T18:32:02.822Z,10.82
2022-08-03T18:34:32.839Z,5.95
2022-08-03T18:37:07.291Z,9.32
2022-08-03T18:39:31.779Z,8.00
2022-08-03T18:41:54.428Z,7.07
2022-08-03T18:44:53.044Z,7.22
2022-08-03T18:47:16.574Z,8.02
2022-08-03T18:50:00.811Z,9.23
2022-08-03T18:52:42.069Z,10.63
2022-08-03T18:55:33.751Z,7.82
2022-08-03T18:58:17.934Z,12.27
2022-08-03T19:01:58.401Z,10.40
2022-08-03T19:04:49.685Z,10.50
2022-08-03T19:07:22.154Z,8.10
2022-08-03T19:09:55.383Z,9.65
2022-08-03T19:12:30.761Z,7.72
2022-08-03T19:15:06.248Z,7.03
2022-08-03T19:17:41.831Z,9.52
2022-08-03T19:20:06.101Z,11.32
2022-08-03T19:22:28.305Z,7.07
2022-08-03T19:24:55.163Z,7.97
2022-08-03T19:27:20.295Z,8.75
2022-08-03T19:29:58.906Z,8.75
2022-08-03T19:32:24.487Z,9.50
2022-08-03T19:34:51.310Z,7.60
2022-08-03T19:37:15.452Z,7.45
2022-08-03T19:39:37.430Z,7.40
2022-08-03T19:42:18.477Z,6.75
2022-08-03T19:44:51.229Z,7.93
2022-08-03T19:47:33.832Z,6.43
2022-08-03T19:50:05.909Z,6.35
2022-08-03T19:52:39.338Z,8.48
2022-08-03T19:55:09.710Z,7.68
2022-08-03T19:57:37.753Z,5.93
2022-08-03T20:00:03.540Z,5.50
2022-08-03T20:02:29.645Z,7.22
2022-08-03T20:04:51.842Z,6.60
2022-08-03T20:07:20.626Z,8.40
2022-08-03T20:09:46.380Z,7.13
2022-08-03T20:12:16.804Z,9.23
2022-08-03T20:14:40.448Z,7.88
2022-08-03T20:17:04.297Z,7.65
2022-08-03T20:19:32.607Z,6.93
2022-08-03T20:21:54.911Z,8.07
2022-08-03T20:24:27.019Z,6.65
2022-08-03T20:26:54.520Z,8.10
2022-08-03T20:29:42.728Z,5.72
2022-08-03T20:32:10.231Z,9.93
2022-08-03T20:34:32.168Z,8.15
2022-08-03T20:36:54.205Z,8.73
2022-08-03T20:39:16.191Z,7.90
2022-08-03T20:41:38.250Z,7.60
2022-08-03T20:44:01.005Z,7.55
2022-08-03T20:46:32.187Z,8.18
2022-08-03T20:49:03.852Z,9.10
2022-08-03T20:51:49.602Z,6.50
2022-08-03T20:54:22.583Z,8.35
2022-08-03T20:56:52.756Z,6.78
2022-08-03T20:59:15.322Z,8.23
2022-08-03T21:01:37.979Z,8.07
2022-08-03T21:04:00.337Z,8.82
2022-08-03T21:06:37.493Z,5.60
2022-08-03T21:09:06.798Z,6.22
2022-08-03T21:11:44.363Z,10.25
2022-08-03T21:14:39.332Z,9.23
2022-08-03T21:17:14.069Z,9.35
2022-08-03T21:19:52.103Z,8.38
2022-08-03T21:22:22.982Z,9.65
2022-08-03T21:24:49.446Z,8.55
2022-08-03T21:27:14.979Z,7.97
2022-08-03T21:29:53.230Z,10.40
2022-08-03T21:32:32.911Z,6.68
2022-08-03T21:34:57.192Z,8.27
2022-08-03T21:37:18.986Z,9.35
2022-08-03T21:39:50.566Z,9.30
2022-08-03T21:42:13.876Z,10.10
2022-08-03T21:44:35.689Z,11.82
2022-08-03T21:47:00.935Z,12.35
2022-08-03T21:50:05.661Z,9.32
2022-08-03T21:52:09.397Z,12.70
2022-08-03T21:54:41.421Z,8.43
2022-08-03T21:57:12.999Z,6.97
2022-08-03T21:59:41.435Z,9.85
2022-08-03T22:02:04.442Z,9.25
2022-08-03T22:04:38.060Z,12.18
2022-08-03T22:07:09.648Z,11.02
2022-08-03T22:09:34.189Z,9.65
2022-08-03T22:11:56.170Z,7.82
2022-08-03T22:14:18.139Z,9.48
2022-08-03T22:16:41.267Z,9.25
2022-08-03T22:19:03.249Z,6.82
2022-08-03T22:21:36.386Z,13.90
2022-08-03T22:24:00.553Z,10.23
2022-08-03T22:26:34.963Z,8.88
2022-08-03T22:28:59.690Z,9.93
2022-08-03T22:31:37.613Z,9.85
2022-08-03T22:34:03.940Z,10.10
2022-08-03T22:36:26.152Z,9.13
2022-08-03T22:38:48.568Z,11.45
2022-08-03T22:41:10.824Z,8.93
2022-08-03T22:43:36.926Z,12.95
2022-08-03T22:46:09.160Z,10.38
2022-08-03T22:48:40.813Z,11.32
2022-08-03T22:51:05.435Z,8.80
2022-08-03T22:53:27.988Z,8.88
2022-08-03T22:55:51.890Z,9.77
2022-08-03T22:58:15.995Z,11.38
2022-08-03T23:00:47.513Z,13.95
2022-08-03T23:03:20.149Z,14.43
2022-08-03T23:06:01.377Z,12.63
2022-08-03T23:08:27.548Z,15.75
2022-08-03T23:10:52.430Z,13.68
2022-08-03T23:13:19.612Z,11.45
2022-08-03T23:15:42.526Z,12.60
2022-08-03T23:18:06.423Z,10.05
2022-08-03T23:20:30.048Z,11.80
2022-08-03T23:25:17.432Z,11.48
2022-08-03T23:27:42.226Z,12.15
2022-08-03T23:30:04.496Z,9.02
2022-08-03T23:32:28.902Z,13.20
2022-08-03T23:37:33.425Z,11.65
2022-08-03T23:40:16.100Z,13.25
2022-08-03T23:42:39.466Z,10.82
2022-08-03T23:45:05.982Z,11.13
2022-08-03T23:47:46.477Z,12.45
2022-08-03T23:50:09.553Z,12.30
2022-08-03T23:52:56.835Z,11.25
2022-08-03T23:55:45.798Z,12.55
2022-08-03T23:58:47.345Z,8.98
